sensor_id;sensor_type;location;lat;lon;timestamp;P1;durP1;ratioP1;P2;durP2;ratioP2
11090;SDS011;5599;52.210;21.046;2022-12-24T00:01:23;28.87;;;23.60;;
11090;SDS011;5599;52.210;21.046;2022-12-24T00:03:52;30.33;;;23.87;;
11090;SDS011;5599;52.210;21.046;2022-12-24T00:06:22;29.90;;;23.73;;
11090;SDS011;5599;52.210;21.046;2022-12-24T00:08:52;31.87;;;24.57;;
11090;SDS011;5599;52.210;21.046;2022-12-24T00:11:21;31.40;;;25.00;;
11090;SDS011;5599;52.210;21.046;2022-12-24T00:13:50;29.63;;;23.93;;
11090;SDS011;5599;52.210;21.046;2022-12-24T00:16:19;28.70;;;23.43;;
11090;SDS011;5599;52.210;21.046;2022-12-24T00:18:50;29.00;;;23.83;;
11090;SDS011;5599;52.210;21.046;2022-12-24T00:21:19;30.23;;;24.60;;
11090;SDS011;5599;52.210;21.046;2022-12-24T00:23:48;31.33;;;25.57;;
11090;SDS011;5599;52.210;21.046;2022-12-24T00:26:17;35.23;;;25.33;;
11090;SDS011;5599;52.210;21.046;2022-12-24T00:28:46;32.07;;;25.27;;
11090;SDS011;5599;52.210;21.046;2022-12-24T00:31:16;33.90;;;25.80;;
11090;SDS011;5599;52.210;21.046;2022-12-24T00:33:46;32.93;;;25.73;;
11090;SDS011;5599;52.210;21.046;2022-12-24T00:36:17;32.83;;;25.43;;
11090;SDS011;5599;52.210;21.046;2022-12-24T00:38:47;33.23;;;25.70;;
11090;SDS011;5599;52.210;21.046;2022-12-24T00:41:17;30.97;;;24.57;;
11090;SDS011;5599;52.210;21.046;2022-12-24T00:43:52;30.70;;;24.13;;
11090;SDS011;5599;52.210;21.046;2022-12-24T00:46:22;32.20;;;24.47;;
11090;SDS011;5599;52.210;21.046;2022-12-24T00:48:52;29.27;;;24.17;;
11090;SDS011;5599;52.210;21.046;2022-12-24T00:51:23;30.03;;;24.50;;
11090;SDS011;5599;52.210;21.046;2022-12-24T00:53:52;28.33;;;24.63;;
11090;SDS011;5599;52.210;21.046;2022-12-24T00:56:21;31.90;;;25.40;;
11090;SDS011;5599;52.210;21.046;2022-12-24T00:58:51;31.70;;;24.87;;
11090;SDS011;5599;52.210;21.046;2022-12-24T01:01:21;31.20;;;24.87;;
11090;SDS011;5599;52.210;21.046;2022-12-24T01:03:51;32.63;;;26.00;;
11090;SDS011;5599;52.210;21.046;2022-12-24T01:06:43;33.00;;;25.80;;
11090;SDS011;5599;52.210;21.046;2022-12-24T01:09:11;34.67;;;25.63;;
11090;SDS011;5599;52.210;21.046;2022-12-24T01:11:40;33.20;;;25.90;;
11090;SDS011;5599;52.210;21.046;2022-12-24T01:14:09;29.17;;;24.30;;
11090;SDS011;5599;52.210;21.046;2022-12-24T01:16:38;32.27;;;25.17;;
11090;SDS011;5599;52.210;21.046;2022-12-24T01:19:07;34.93;;;26.97;;
11090;SDS011;5599;52.210;21.046;2022-12-24T01:21:36;32.07;;;25.67;;
11090;SDS011;5599;52.210;21.046;2022-12-24T01:24:08;34.10;;;25.97;;
11090;SDS011;5599;52.210;21.046;2022-12-24T01:26:41;34.63;;;26.57;;
11090;SDS011;5599;52.210;21.046;2022-12-24T01:29:10;36.77;;;25.57;;
11090;SDS011;5599;52.210;21.046;2022-12-24T01:31:39;33.83;;;25.70;;
11090;SDS011;5599;52.210;21.046;2022-12-24T01:34:08;36.53;;;26.77;;
11090;SDS011;5599;52.210;21.046;2022-12-24T01:36:38;35.83;;;26.83;;
11090;SDS011;5599;52.210;21.046;2022-12-24T01:39:08;33.23;;;25.93;;
11090;SDS011;5599;52.210;21.046;2022-12-24T01:41:37;34.03;;;25.40;;
11090;SDS011;5599;52.210;21.046;2022-12-24T01:44:33;31.87;;;25.37;;
11090;SDS011;5599;52.210;21.046;2022-12-24T01:47:05;33.27;;;26.80;;
11090;SDS011;5599;52.210;21.046;2022-12-24T01:49:39;29.83;;;24.73;;
11090;SDS011;5599;52.210;21.046;2022-12-24T01:52:13;33.27;;;26.67;;
11090;SDS011;5599;52.210;21.046;2022-12-24T01:54:47;36.03;;;27.27;;
11090;SDS011;5599;52.210;21.046;2022-12-24T01:57:19;32.27;;;27.63;;
11090;SDS011;5599;52.210;21.046;2022-12-24T01:59:54;31.70;;;26.87;;
11090;SDS011;5599;52.210;21.046;2022-12-24T02:02:25;35.30;;;26.93;;
11090;SDS011;5599;52.210;21.046;2022-12-24T02:04:56;32.80;;;26.07;;
11090;SDS011;5599;52.210;21.046;2022-12-24T02:07:30;34.57;;;27.70;;
11090;SDS011;5599;52.210;21.046;2022-12-24T02:10:01;34.37;;;25.90;;
11090;SDS011;5599;52.210;21.046;2022-12-24T02:12:32;31.80;;;24.53;;
11090;SDS011;5599;52.210;21.046;2022-12-24T02:15:04;33.70;;;25.33;;
11090;SDS011;5599;52.210;21.046;2022-12-24T02:17:37;34.63;;;27.10;;
11090;SDS011;5599;52.210;21.046;2022-12-24T02:23:25;40.30;;;27.97;;
11090;SDS011;5599;52.210;21.046;2022-12-24T02:26:16;41.03;;;29.23;;
11090;SDS011;5599;52.210;21.046;2022-12-24T02:32:01;45.03;;;30.27;;
11090;SDS011;5599;52.210;21.046;2022-12-24T02:34:35;39.63;;;28.60;;
11090;SDS011;5599;52.210;21.046;2022-12-24T02:37:09;39.83;;;29.23;;
11090;SDS011;5599;52.210;21.046;2022-12-24T02:39:43;39.40;;;28.70;;
11090;SDS011;5599;52.210;21.046;2022-12-24T02:42:17;45.97;;;30.33;;
11090;SDS011;5599;52.210;21.046;2022-12-24T02:44:51;48.40;;;30.70;;
11090;SDS011;5599;52.210;21.046;2022-12-24T02:47:25;44.30;;;30.67;;
11090;SDS011;5599;52.210;21.046;2022-12-24T02:50:00;38.30;;;27.67;;
11090;SDS011;5599;52.210;21.046;2022-12-24T02:52:31;35.37;;;26.07;;
11090;SDS011;5599;52.210;21.046;2022-12-24T02:55:02;36.60;;;26.93;;
11090;SDS011;5599;52.210;21.046;2022-12-24T02:57:37;33.73;;;26.40;;
11090;SDS011;5599;52.210;21.046;2022-12-24T03:00:17;31.87;;;25.47;;
11090;SDS011;5599;52.210;21.046;2022-12-24T03:02:54;33.57;;;24.87;;
11090;SDS011;5599;52.210;21.046;2022-12-24T03:05:36;32.73;;;25.77;;
11090;SDS011;5599;52.210;21.046;2022-12-24T03:08:13;39.83;;;25.83;;
11090;SDS011;5599;52.210;21.046;2022-12-24T03:10:51;35.43;;;26.83;;
11090;SDS011;5599;52.210;21.046;2022-12-24T03:13:24;41.90;;;27.23;;
11090;SDS011;5599;52.210;21.046;2022-12-24T03:15:55;64.27;;;29.83;;
11090;SDS011;5599;52.210;21.046;2022-12-24T03:18:26;42.73;;;27.53;;
11090;SDS011;5599;52.210;21.046;2022-12-24T03:20:57;89.00;;;30.50;;
11090;SDS011;5599;52.210;21.046;2022-12-24T03:23:31;91.23;;;31.23;;
11090;SDS011;5599;52.210;21.046;2022-12-24T03:26:04;73.87;;;29.67;;
11090;SDS011;5599;52.210;21.046;2022-12-24T03:28:35;111.93;;;30.70;;
11090;SDS011;5599;52.210;21.046;2022-12-24T03:31:06;69.07;;;27.87;;
11090;SDS011;5599;52.210;21.046;2022-12-24T03:33:37;110.17;;;29.00;;
11090;SDS011;5599;52.210;21.046;2022-12-24T03:36:07;58.77;;;30.03;;
11090;SDS011;5599;52.210;21.046;2022-12-24T03:38:37;141.27;;;32.53;;
11090;SDS011;5599;52.210;21.046;2022-12-24T03:41:06;85.30;;;32.03;;
11090;SDS011;5599;52.210;21.046;2022-12-24T03:43:35;165.80;;;34.07;;
11090;SDS011;5599;52.210;21.046;2022-12-24T03:46:05;191.20;;;33.40;;
11090;SDS011;5599;52.210;21.046;2022-12-24T03:48:35;56.53;;;29.00;;
11090;SDS011;5599;52.210;21.046;2022-12-24T03:51:13;111.07;;;30.77;;
11090;SDS011;5599;52.210;21.046;2022-12-24T03:53:44;64.83;;;29.17;;
11090;SDS011;5599;52.210;21.046;2022-12-24T03:56:14;60.07;;;29.40;;
11090;SDS011;5599;52.210;21.046;2022-12-24T03:58:43;46.17;;;27.33;;
11090;SDS011;5599;52.210;21.046;2022-12-24T04:01:12;48.97;;;27.70;;
11090;SDS011;5599;52.210;21.046;2022-12-24T04:03:43;48.40;;;28.87;;
11090;SDS011;5599;52.210;21.046;2022-12-24T04:06:13;46.17;;;29.10;;
11090;SDS011;5599;52.210;21.046;2022-12-24T04:08:44;39.80;;;27.20;;
11090;SDS011;5599;52.210;21.046;2022-12-24T04:11:14;38.37;;;26.57;;
11090;SDS011;5599;52.210;21.046;2022-12-24T04:13:43;39.00;;;26.73;;
11090;SDS011;5599;52.210;21.046;2022-12-24T04:16:13;39.83;;;26.53;;
11090;SDS011;5599;52.210;21.046;2022-12-24T04:18:45;41.70;;;27.10;;
11090;SDS011;5599;52.210;21.046;2022-12-24T04:21:14;42.10;;;27.53;;
11090;SDS011;5599;52.210;21.046;2022-12-24T04:23:43;45.80;;;28.53;;
11090;SDS011;5599;52.210;21.046;2022-12-24T04:26:13;41.77;;;27.43;;
11090;SDS011;5599;52.210;21.046;2022-12-24T04:28:43;39.33;;;27.00;;
11090;SDS011;5599;52.210;21.046;2022-12-24T04:31:12;37.03;;;25.53;;
11090;SDS011;5599;52.210;21.046;2022-12-24T04:33:43;38.20;;;25.93;;
11090;SDS011;5599;52.210;21.046;2022-12-24T04:36:15;40.63;;;25.70;;
11090;SDS011;5599;52.210;21.046;2022-12-24T04:38:46;33.83;;;25.07;;
11090;SDS011;5599;52.210;21.046;2022-12-24T04:41:16;34.53;;;26.17;;
11090;SDS011;5599;52.210;21.046;2022-12-24T04:43:50;33.13;;;24.07;;
11090;SDS011;5599;52.210;21.046;2022-12-24T04:46:21;31.47;;;24.40;;
11090;SDS011;5599;52.210;21.046;2022-12-24T04:48:53;32.80;;;24.47;;
11090;SDS011;5599;52.210;21.046;2022-12-24T04:51:22;32.83;;;24.90;;
11090;SDS011;5599;52.210;21.046;2022-12-24T04:53:53;36.37;;;25.17;;
11090;SDS011;5599;52.210;21.046;2022-12-24T04:56:24;35.53;;;25.73;;
11090;SDS011;5599;52.210;21.046;2022-12-24T04:58:59;34.77;;;25.03;;
11090;SDS011;5599;52.210;21.046;2022-12-24T05:01:29;33.00;;;25.23;;
11090;SDS011;5599;52.210;21.046;2022-12-24T05:04:01;34.57;;;24.43;;
11090;SDS011;5599;52.210;21.046;2022-12-24T05:06:30;31.50;;;22.47;;
11090;SDS011;5599;52.210;21.046;2022-12-24T05:09:00;36.43;;;25.10;;
11090;SDS011;5599;52.210;21.046;2022-12-24T05:11:29;34.83;;;24.10;;
11090;SDS011;5599;52.210;21.046;2022-12-24T05:13:58;32.53;;;22.67;;
11090;SDS011;5599;52.210;21.046;2022-12-24T05:16:27;35.57;;;24.43;;
11090;SDS011;5599;52.210;21.046;2022-12-24T05:18:56;35.20;;;23.43;;
11090;SDS011;5599;52.210;21.046;2022-12-24T05:21:27;30.07;;;21.57;;
11090;SDS011;5599;52.210;21.046;2022-12-24T05:23:56;33.20;;;22.43;;
11090;SDS011;5599;52.210;21.046;2022-12-24T05:26:42;32.50;;;22.17;;
11090;SDS011;5599;52.210;21.046;2022-12-24T05:29:13;30.30;;;20.57;;
11090;SDS011;5599;52.210;21.046;2022-12-24T05:31:42;33.93;;;22.00;;
11090;SDS011;5599;52.210;21.046;2022-12-24T05:34:13;24.77;;;18.27;;
11090;SDS011;5599;52.210;21.046;2022-12-24T05:36:44;26.03;;;17.60;;
11090;SDS011;5599;52.210;21.046;2022-12-24T05:39:14;26.83;;;18.80;;
11090;SDS011;5599;52.210;21.046;2022-12-24T05:41:44;22.63;;;16.67;;
11090;SDS011;5599;52.210;21.046;2022-12-24T05:44:14;23.60;;;16.23;;
11090;SDS011;5599;52.210;21.046;2022-12-24T05:46:43;23.27;;;15.17;;
11090;SDS011;5599;52.210;21.046;2022-12-24T05:49:13;19.73;;;15.67;;
11090;SDS011;5599;52.210;21.046;2022-12-24T05:51:42;23.63;;;16.37;;
11090;SDS011;5599;52.210;21.046;2022-12-24T05:54:12;25.50;;;16.77;;
11090;SDS011;5599;52.210;21.046;2022-12-24T05:56:41;24.47;;;16.73;;
11090;SDS011;5599;52.210;21.046;2022-12-24T05:59:10;22.00;;;15.20;;
11090;SDS011;5599;52.210;21.046;2022-12-24T06:01:39;23.30;;;16.13;;
11090;SDS011;5599;52.210;21.046;2022-12-24T06:04:11;24.33;;;16.43;;
11090;SDS011;5599;52.210;21.046;2022-12-24T06:06:41;23.10;;;15.57;;
11090;SDS011;5599;52.210;21.046;2022-12-24T06:09:10;23.17;;;15.23;;
11090;SDS011;5599;52.210;21.046;2022-12-24T06:11:40;24.97;;;16.27;;
11090;SDS011;5599;52.210;21.046;2022-12-24T06:14:09;25.67;;;16.07;;
11090;SDS011;5599;52.210;21.046;2022-12-24T06:16:38;30.27;;;16.43;;
11090;SDS011;5599;52.210;21.046;2022-12-24T06:19:07;27.60;;;16.50;;
11090;SDS011;5599;52.210;21.046;2022-12-24T06:21:36;25.63;;;16.80;;
11090;SDS011;5599;52.210;21.046;2022-12-24T06:24:05;25.87;;;16.50;;
11090;SDS011;5599;52.210;21.046;2022-12-24T06:26:34;24.77;;;15.83;;
11090;SDS011;5599;52.210;21.046;2022-12-24T06:29:05;27.33;;;16.87;;
11090;SDS011;5599;52.210;21.046;2022-12-24T06:31:34;27.03;;;16.87;;
11090;SDS011;5599;52.210;21.046;2022-12-24T06:34:03;26.23;;;16.07;;
11090;SDS011;5599;52.210;21.046;2022-12-24T06:36:32;27.53;;;17.17;;
11090;SDS011;5599;52.210;21.046;2022-12-24T06:39:01;26.63;;;16.50;;
11090;SDS011;5599;52.210;21.046;2022-12-24T06:41:30;25.07;;;16.50;;
11090;SDS011;5599;52.210;21.046;2022-12-24T06:43:59;23.97;;;15.70;;
11090;SDS011;5599;52.210;21.046;2022-12-24T06:46:30;23.40;;;16.43;;
11090;SDS011;5599;52.210;21.046;2022-12-24T06:48:59;21.87;;;15.80;;
11090;SDS011;5599;52.210;21.046;2022-12-24T06:51:28;23.87;;;16.43;;
11090;SDS011;5599;52.210;21.046;2022-12-24T06:53:57;27.00;;;16.20;;
11090;SDS011;5599;52.210;21.046;2022-12-24T06:56:26;27.50;;;16.17;;
11090;SDS011;5599;52.210;21.046;2022-12-24T06:58:55;26.10;;;16.27;;
11090;SDS011;5599;52.210;21.046;2022-12-24T07:01:32;22.53;;;15.93;;
11090;SDS011;5599;52.210;21.046;2022-12-24T07:04:01;25.27;;;16.67;;
11090;SDS011;5599;52.210;21.046;2022-12-24T07:06:31;24.67;;;16.87;;
11090;SDS011;5599;52.210;21.046;2022-12-24T07:09:00;25.73;;;15.77;;
11090;SDS011;5599;52.210;21.046;2022-12-24T07:11:29;20.77;;;15.93;;
11090;SDS011;5599;52.210;21.046;2022-12-24T07:13:58;26.07;;;16.73;;
11090;SDS011;5599;52.210;21.046;2022-12-24T07:16:27;21.67;;;15.60;;
11090;SDS011;5599;52.210;21.046;2022-12-24T07:18:58;24.87;;;16.30;;
11090;SDS011;5599;52.210;21.046;2022-12-24T07:21:27;21.77;;;14.83;;
11090;SDS011;5599;52.210;21.046;2022-12-24T07:23:56;24.57;;;15.60;;
11090;SDS011;5599;52.210;21.046;2022-12-24T07:26:25;23.33;;;15.57;;
11090;SDS011;5599;52.210;21.046;2022-12-24T07:28:54;24.53;;;15.57;;
11090;SDS011;5599;52.210;21.046;2022-12-24T07:31:24;25.93;;;15.47;;
11090;SDS011;5599;52.210;21.046;2022-12-24T07:33:53;23.23;;;15.17;;
11090;SDS011;5599;52.210;21.046;2022-12-24T07:36:23;23.87;;;14.80;;
11090;SDS011;5599;52.210;21.046;2022-12-24T07:38:54;24.17;;;15.07;;
11090;SDS011;5599;52.210;21.046;2022-12-24T07:41:23;23.03;;;15.77;;
11090;SDS011;5599;52.210;21.046;2022-12-24T07:43:52;27.53;;;17.00;;
11090;SDS011;5599;52.210;21.046;2022-12-24T07:46:21;28.23;;;16.70;;
11090;SDS011;5599;52.210;21.046;2022-12-24T07:48:50;26.27;;;16.47;;
11090;SDS011;5599;52.210;21.046;2022-12-24T07:51:19;24.53;;;15.10;;
11090;SDS011;5599;52.210;21.046;2022-12-24T07:53:50;24.10;;;16.40;;
11090;SDS011;5599;52.210;21.046;2022-12-24T07:56:18;25.07;;;15.57;;
11090;SDS011;5599;52.210;21.046;2022-12-24T07:58:48;23.13;;;15.93;;
11090;SDS011;5599;52.210;21.046;2022-12-24T08:01:17;24.00;;;15.33;;
11090;SDS011;5599;52.210;21.046;2022-12-24T08:03:47;25.57;;;15.90;;
11090;SDS011;5599;52.210;21.046;2022-12-24T08:06:17;23.43;;;15.80;;
11090;SDS011;5599;52.210;21.046;2022-12-24T08:08:46;21.40;;;14.07;;
11090;SDS011;5599;52.210;21.046;2022-12-24T08:11:16;23.87;;;14.00;;
11090;SDS011;5599;52.210;21.046;2022-12-24T08:13:46;26.43;;;15.70;;
11090;SDS011;5599;52.210;21.046;2022-12-24T08:16:15;23.70;;;15.13;;
11090;SDS011;5599;52.210;21.046;2022-12-24T08:18:44;27.00;;;15.43;;
11090;SDS011;5599;52.210;21.046;2022-12-24T08:21:13;26.57;;;15.90;;
11090;SDS011;5599;52.210;21.046;2022-12-24T08:23:42;21.20;;;14.23;;
11090;SDS011;5599;52.210;21.046;2022-12-24T08:26:11;24.27;;;14.70;;
11090;SDS011;5599;52.210;21.046;2022-12-24T08:28:41;19.77;;;13.50;;
11090;SDS011;5599;52.210;21.046;2022-12-24T08:31:11;23.13;;;14.77;;
11090;SDS011;5599;52.210;21.046;2022-12-24T08:33:41;22.23;;;14.50;;
11090;SDS011;5599;52.210;21.046;2022-12-24T08:36:11;22.63;;;14.50;;
11090;SDS011;5599;52.210;21.046;2022-12-24T08:38:40;23.23;;;14.50;;
11090;SDS011;5599;52.210;21.046;2022-12-24T08:41:09;23.17;;;14.63;;
11090;SDS011;5599;52.210;21.046;2022-12-24T08:43:38;22.60;;;14.70;;
11090;SDS011;5599;52.210;21.046;2022-12-24T08:46:09;21.30;;;14.27;;
11090;SDS011;5599;52.210;21.046;2022-12-24T08:48:38;20.73;;;14.07;;
11090;SDS011;5599;52.210;21.046;2022-12-24T08:51:08;20.73;;;13.30;;
11090;SDS011;5599;52.210;21.046;2022-12-24T08:53:38;18.47;;;13.03;;
11090;SDS011;5599;52.210;21.046;2022-12-24T08:56:08;18.30;;;12.97;;
11090;SDS011;5599;52.210;21.046;2022-12-24T08:58:37;18.90;;;12.33;;
11090;SDS011;5599;52.210;21.046;2022-12-24T09:01:12;20.50;;;13.20;;
11090;SDS011;5599;52.210;21.046;2022-12-24T09:03:43;17.93;;;12.10;;
11090;SDS011;5599;52.210;21.046;2022-12-24T09:06:13;16.10;;;12.27;;
11090;SDS011;5599;52.210;21.046;2022-12-24T09:08:43;18.50;;;12.57;;
11090;SDS011;5599;52.210;21.046;2022-12-24T09:11:12;16.20;;;12.00;;
11090;SDS011;5599;52.210;21.046;2022-12-24T09:13:45;16.80;;;11.83;;
11090;SDS011;5599;52.210;21.046;2022-12-24T09:16:16;19.40;;;12.27;;
11090;SDS011;5599;52.210;21.046;2022-12-24T09:18:45;17.27;;;12.23;;
11090;SDS011;5599;52.210;21.046;2022-12-24T09:21:14;16.13;;;11.83;;
11090;SDS011;5599;52.210;21.046;2022-12-24T09:23:45;17.63;;;11.87;;
11090;SDS011;5599;52.210;21.046;2022-12-24T09:26:15;16.80;;;11.50;;
11090;SDS011;5599;52.210;21.046;2022-12-24T09:28:46;17.57;;;12.13;;
11090;SDS011;5599;52.210;21.046;2022-12-24T09:31:17;15.30;;;11.70;;
11090;SDS011;5599;52.210;21.046;2022-12-24T09:33:46;16.50;;;11.47;;
11090;SDS011;5599;52.210;21.046;2022-12-24T09:36:17;14.50;;;11.53;;
11090;SDS011;5599;52.210;21.046;2022-12-24T09:38:46;13.57;;;10.07;;
11090;SDS011;5599;52.210;21.046;2022-12-24T09:41:21;15.00;;;11.13;;
11090;SDS011;5599;52.210;21.046;2022-12-24T09:44:00;13.87;;;10.80;;
11090;SDS011;5599;52.210;21.046;2022-12-24T09:46:38;15.43;;;10.87;;
11090;SDS011;5599;52.210;21.046;2022-12-24T09:49:09;12.47;;;9.60;;
11090;SDS011;5599;52.210;21.046;2022-12-24T09:51:44;11.93;;;9.90;;
11090;SDS011;5599;52.210;21.046;2022-12-24T09:54:16;13.87;;;10.03;;
11090;SDS011;5599;52.210;21.046;2022-12-24T09:56:50;15.87;;;10.77;;
11090;SDS011;5599;52.210;21.046;2022-12-24T09:59:21;12.70;;;9.87;;
11090;SDS011;5599;52.210;21.046;2022-12-24T10:01:54;13.40;;;10.43;;
11090;SDS011;5599;52.210;21.046;2022-12-24T10:04:29;16.10;;;11.57;;
11090;SDS011;5599;52.210;21.046;2022-12-24T10:07:01;17.80;;;11.60;;
11090;SDS011;5599;52.210;21.046;2022-12-24T10:09:39;14.57;;;10.77;;
11090;SDS011;5599;52.210;21.046;2022-12-24T10:12:16;14.17;;;10.23;;
11090;SDS011;5599;52.210;21.046;2022-12-24T10:14:53;15.30;;;10.83;;
11090;SDS011;5599;52.210;21.046;2022-12-24T10:17:35;12.93;;;10.20;;
11090;SDS011;5599;52.210;21.046;2022-12-24T10:23:05;12.70;;;10.37;;
11090;SDS011;5599;52.210;21.046;2022-12-24T10:25:41;14.30;;;10.40;;
11090;SDS011;5599;52.210;21.046;2022-12-24T10:28:16;12.63;;;10.90;;
11090;SDS011;5599;52.210;21.046;2022-12-24T10:30:49;14.07;;;10.33;;
11090;SDS011;5599;52.210;21.046;2022-12-24T10:33:27;14.27;;;11.20;;
11090;SDS011;5599;52.210;21.046;2022-12-24T10:36:00;15.00;;;11.47;;
11090;SDS011;5599;52.210;21.046;2022-12-24T10:38:38;15.37;;;12.20;;
11090;SDS011;5599;52.210;21.046;2022-12-24T10:41:07;15.53;;;12.20;;
11090;SDS011;5599;52.210;21.046;2022-12-24T10:43:39;15.03;;;11.33;;
11090;SDS011;5599;52.210;21.046;2022-12-24T10:46:14;14.53;;;10.53;;
11090;SDS011;5599;52.210;21.046;2022-12-24T10:48:50;11.60;;;9.40;;
11090;SDS011;5599;52.210;21.046;2022-12-24T10:51:28;16.70;;;11.37;;
11090;SDS011;5599;52.210;21.046;2022-12-24T10:54:06;12.90;;;10.03;;
11090;SDS011;5599;52.210;21.046;2022-12-24T10:56:40;11.97;;;9.57;;
11090;SDS011;5599;52.210;21.046;2022-12-24T10:59:22;14.67;;;10.63;;
11090;SDS011;5599;52.210;21.046;2022-12-24T11:01:53;12.37;;;9.80;;
11090;SDS011;5599;52.210;21.046;2022-12-24T11:04:26;13.67;;;10.50;;
11090;SDS011;5599;52.210;21.046;2022-12-24T11:06:57;14.57;;;11.20;;
11090;SDS011;5599;52.210;21.046;2022-12-24T11:09:28;18.73;;;12.20;;
11090;SDS011;5599;52.210;21.046;2022-12-24T11:11:59;15.73;;;11.10;;
11090;SDS011;5599;52.210;21.046;2022-12-24T11:14:37;16.73;;;11.20;;
11090;SDS011;5599;52.210;21.046;2022-12-24T11:17:10;16.73;;;12.03;;
11090;SDS011;5599;52.210;21.046;2022-12-24T11:19:49;19.40;;;12.00;;
11090;SDS011;5599;52.210;21.046;2022-12-24T11:22:22;20.30;;;12.17;;
11090;SDS011;5599;52.210;21.046;2022-12-24T11:24:57;18.00;;;13.17;;
11090;SDS011;5599;52.210;21.046;2022-12-24T11:27:37;17.87;;;11.87;;
11090;SDS011;5599;52.210;21.046;2022-12-24T11:30:21;19.97;;;12.60;;
11090;SDS011;5599;52.210;21.046;2022-12-24T11:35:51;19.63;;;12.33;;
11090;SDS011;5599;52.210;21.046;2022-12-24T11:38:33;18.20;;;11.90;;
11090;SDS011;5599;52.210;21.046;2022-12-24T11:41:07;18.93;;;12.47;;
11090;SDS011;5599;52.210;21.046;2022-12-24T11:43:41;17.07;;;11.83;;
11090;SDS011;5599;52.210;21.046;2022-12-24T11:46:20;16.63;;;11.57;;
11090;SDS011;5599;52.210;21.046;2022-12-24T11:49:12;20.50;;;13.07;;
11090;SDS011;5599;52.210;21.046;2022-12-24T11:52:10;18.40;;;12.93;;
11090;SDS011;5599;52.210;21.046;2022-12-24T11:57:51;19.73;;;13.20;;
11090;SDS011;5599;52.210;21.046;2022-12-24T12:00:24;20.30;;;13.57;;
11090;SDS011;5599;52.210;21.046;2022-12-24T12:03:01;22.57;;;14.07;;
11090;SDS011;5599;52.210;21.046;2022-12-24T12:05:32;24.67;;;14.57;;
11090;SDS011;5599;52.210;21.046;2022-12-24T12:08:06;18.50;;;12.83;;
11090;SDS011;5599;52.210;21.046;2022-12-24T12:10:42;21.60;;;13.00;;
11090;SDS011;5599;52.210;21.046;2022-12-24T12:13:13;21.37;;;13.37;;
11090;SDS011;5599;52.210;21.046;2022-12-24T12:15:44;19.80;;;13.33;;
11090;SDS011;5599;52.210;21.046;2022-12-24T12:18:19;21.30;;;14.10;;
11090;SDS011;5599;52.210;21.046;2022-12-24T12:20:52;18.07;;;12.97;;
11090;SDS011;5599;52.210;21.046;2022-12-24T12:23:27;21.83;;;13.77;;
11090;SDS011;5599;52.210;21.046;2022-12-24T12:25:58;21.70;;;13.70;;
11090;SDS011;5599;52.210;21.046;2022-12-24T12:28:31;23.40;;;14.60;;
11090;SDS011;5599;52.210;21.046;2022-12-24T12:31:05;20.27;;;13.60;;
11090;SDS011;5599;52.210;21.046;2022-12-24T12:33:43;20.30;;;12.90;;
11090;SDS011;5599;52.210;21.046;2022-12-24T12:36:16;21.33;;;13.30;;
11090;SDS011;5599;52.210;21.046;2022-12-24T12:38:50;22.80;;;14.90;;
11090;SDS011;5599;52.210;21.046;2022-12-24T12:41:22;20.97;;;12.53;;
11090;SDS011;5599;52.210;21.046;2022-12-24T12:44:09;19.17;;;12.93;;
11090;SDS011;5599;52.210;21.046;2022-12-24T12:47:02;18.73;;;13.37;;
11090;SDS011;5599;52.210;21.046;2022-12-24T12:49:43;19.37;;;12.40;;
11090;SDS011;5599;52.210;21.046;2022-12-24T12:52:24;17.50;;;12.80;;
11090;SDS011;5599;52.210;21.046;2022-12-24T12:55:12;19.13;;;12.20;;
11090;SDS011;5599;52.210;21.046;2022-12-24T12:57:51;19.07;;;13.87;;
11090;SDS011;5599;52.210;21.046;2022-12-24T13:00:23;21.20;;;13.80;;
11090;SDS011;5599;52.210;21.046;2022-12-24T13:03:06;20.33;;;13.73;;
11090;SDS011;5599;52.210;21.046;2022-12-24T13:12:17;22.33;;;13.77;;
11090;SDS011;5599;52.210;21.046;2022-12-24T13:15:03;17.73;;;13.50;;
11090;SDS011;5599;52.210;21.046;2022-12-24T13:17:52;21.80;;;13.73;;
11090;SDS011;5599;52.210;21.046;2022-12-24T13:20:47;17.97;;;13.27;;
11090;SDS011;5599;52.210;21.046;2022-12-24T13:23:19;19.07;;;13.43;;
11090;SDS011;5599;52.210;21.046;2022-12-24T13:25:49;19.87;;;15.20;;
11090;SDS011;5599;52.210;21.046;2022-12-24T13:28:32;19.00;;;13.87;;
11090;SDS011;5599;52.210;21.046;2022-12-24T13:33:54;21.87;;;14.80;;
11090;SDS011;5599;52.210;21.046;2022-12-24T13:36:28;20.67;;;13.73;;
11090;SDS011;5599;52.210;21.046;2022-12-24T13:42:45;20.50;;;14.17;;
11090;SDS011;5599;52.210;21.046;2022-12-24T13:45:45;18.30;;;13.43;;
11090;SDS011;5599;52.210;21.046;2022-12-24T13:48:17;21.07;;;13.87;;
11090;SDS011;5599;52.210;21.046;2022-12-24T13:50:55;18.47;;;13.63;;
11090;SDS011;5599;52.210;21.046;2022-12-24T13:53:27;19.43;;;14.40;;
11090;SDS011;5599;52.210;21.046;2022-12-24T13:56:01;20.33;;;15.27;;
11090;SDS011;5599;52.210;21.046;2022-12-24T13:58:35;23.23;;;15.83;;
11090;SDS011;5599;52.210;21.046;2022-12-24T14:01:10;23.37;;;17.47;;
11090;SDS011;5599;52.210;21.046;2022-12-24T14:03:42;20.03;;;15.13;;
11090;SDS011;5599;52.210;21.046;2022-12-24T14:06:19;23.77;;;16.33;;
11090;SDS011;5599;52.210;21.046;2022-12-24T14:08:51;23.63;;;17.00;;
11090;SDS011;5599;52.210;21.046;2022-12-24T14:11:30;21.53;;;16.17;;
11090;SDS011;5599;52.210;21.046;2022-12-24T14:14:44;21.43;;;15.90;;
11090;SDS011;5599;52.210;21.046;2022-12-24T14:17:13;22.73;;;15.73;;
11090;SDS011;5599;52.210;21.046;2022-12-24T14:19:50;24.03;;;16.53;;
11090;SDS011;5599;52.210;21.046;2022-12-24T14:22:24;22.30;;;17.27;;
11090;SDS011;5599;52.210;21.046;2022-12-24T14:24:56;21.60;;;15.73;;
11090;SDS011;5599;52.210;21.046;2022-12-24T14:27:28;23.23;;;16.80;;
11090;SDS011;5599;52.210;21.046;2022-12-24T14:30:07;24.63;;;17.73;;
11090;SDS011;5599;52.210;21.046;2022-12-24T14:32:46;20.87;;;15.83;;
11090;SDS011;5599;52.210;21.046;2022-12-24T14:35:17;23.10;;;15.90;;
11090;SDS011;5599;52.210;21.046;2022-12-24T14:37:49;22.30;;;15.87;;
11090;SDS011;5599;52.210;21.046;2022-12-24T14:40:21;22.30;;;15.67;;
11090;SDS011;5599;52.210;21.046;2022-12-24T14:42:56;22.33;;;15.87;;
11090;SDS011;5599;52.210;21.046;2022-12-24T14:45:36;23.97;;;16.73;;
11090;SDS011;5599;52.210;21.046;2022-12-24T14:48:11;24.47;;;17.30;;
11090;SDS011;5599;52.210;21.046;2022-12-24T14:53:42;50.67;;;25.97;;
11090;SDS011;5599;52.210;21.046;2022-12-24T14:56:22;48.60;;;26.57;;
11090;SDS011;5599;52.210;21.046;2022-12-24T14:58:51;49.97;;;27.83;;
11090;SDS011;5599;52.210;21.046;2022-12-24T15:01:23;49.67;;;26.77;;
11090;SDS011;5599;52.210;21.046;2022-12-24T15:04:00;45.57;;;25.83;;
11090;SDS011;5599;52.210;21.046;2022-12-24T15:06:31;44.17;;;22.67;;
11090;SDS011;5599;52.210;21.046;2022-12-24T15:09:02;45.93;;;24.03;;
11090;SDS011;5599;52.210;21.046;2022-12-24T15:11:32;48.33;;;27.80;;
11090;SDS011;5599;52.210;21.046;2022-12-24T15:14:01;45.67;;;26.97;;
11090;SDS011;5599;52.210;21.046;2022-12-24T15:16:33;48.43;;;25.40;;
11090;SDS011;5599;52.210;21.046;2022-12-24T15:19:04;45.77;;;25.90;;
11090;SDS011;5599;52.210;21.046;2022-12-24T15:21:40;42.13;;;24.10;;
11090;SDS011;5599;52.210;21.046;2022-12-24T15:24:22;49.20;;;24.60;;